Terminal Aerodrome Forecast
Issued by NWS

Home | Current Version | Previous Version | Text Only | Print | Product List | Glossary On
Versions: 1 2 3 4 5 6 7 8 9 10 11 12 13 14
000
FTUS46 KMFR 051740
TAFRBG
TAF
KRBG 051740Z 0518/0618 30007KT P6SM VCSH BKN035 OVC045
     FM052300 35012KT P6SM BKN050
     FM060700 35002KT P6SM SCT025 OVC050=

USA.gov is the U.S. government's official web portal to all federal, state and local government web resources and services.